Time;durP1;ratioP1;P1;durP2;ratioP2;P2;SDS_P1;SDS_P2;PMS_P1;PMS_P2;Temp;Humidity;BMP_temperature;BMP_pressure;BME280_temperature;BME280_humidity;BME280_pressure;Samples;Min_cycle;Max_cycle;Signal;HPM_P1;HPM_P2
2023/12/13 00:01:25;;;;;;;34.47;14.02;;;6.90;99.90;;;;;;4995229;28;20034;-72
2023/12/13 00:03:51;;;;;;;34.88;14.38;;;6.90;99.90;;;;;;4995771;28;20113;-71
2023/12/13 00:06:17;;;;;;;33.53;14.38;;;6.90;99.90;;;;;;4995567;28;20034;-73
2023/12/13 00:08:43;;;;;;;42.63;15.27;;;6.90;99.90;;;;;;4996022;28;20090;-73
2023/12/13 00:11:08;;;;;;;36.95;15.05;;;6.90;99.90;;;;;;4995642;28;20038;-72
2023/12/13 00:13:34;;;;;;;32.05;14.10;;;6.90;99.90;;;;;;4995475;28;20042;-72
2023/12/13 00:16:01;;;;;;;35.88;15.27;;;7.00;99.90;;;;;;4995399;28;20138;-73
2023/12/13 00:18:26;;;;;;;38.03;14.90;;;7.00;99.90;;;;;;4995030;28;20054;-71
2023/12/13 00:20:52;;;;;;;34.28;14.48;;;7.00;99.90;;;;;;4994009;28;20031;-72
2023/12/13 00:23:18;;;;;;;35.03;14.57;;;7.00;99.90;;;;;;4993165;28;20054;-73
2023/12/13 00:25:43;;;;;;;31.45;14.32;;;7.00;99.90;;;;;;4995371;28;20062;-73
2023/12/13 00:28:09;;;;;;;31.08;14.40;;;7.00;99.90;;;;;;4993609;28;20047;-73
2023/12/13 00:30:34;;;;;;;35.42;14.68;;;7.00;99.90;;;;;;4995052;28;20041;-71
2023/12/13 00:33:00;;;;;;;30.20;14.00;;;7.00;99.90;;;;;;4992530;28;20145;-73
2023/12/13 00:35:26;;;;;;;37.75;15.38;;;7.00;99.90;;;;;;4993665;28;20054;-73
2023/12/13 00:37:51;;;;;;;30.52;14.77;;;7.00;99.90;;;;;;4993897;28;21066;-72
2023/12/13 00:40:18;;;;;;;37.13;15.05;;;6.90;99.90;;;;;;4995109;28;20038;-72
2023/12/13 00:42:44;;;;;;;29.13;14.07;;;6.90;99.90;;;;;;4994188;28;20050;-72
2023/12/13 00:45:10;;;;;;;34.65;14.48;;;6.90;99.90;;;;;;4994253;28;20027;-72
2023/12/13 00:47:37;;;;;;;34.55;15.25;;;6.90;99.90;;;;;;4994619;28;20037;-72
2023/12/13 00:50:02;;;;;;;38.80;15.15;;;6.90;99.90;;;;;;4993540;28;20531;-71
2023/12/13 00:52:29;;;;;;;34.90;15.30;;;6.90;99.90;;;;;;4992208;28;20038;-71
2023/12/13 00:54:55;;;;;;;35.58;14.98;;;6.90;99.90;;;;;;4994560;28;20094;-71
2023/12/13 00:57:20;;;;;;;30.75;14.07;;;6.90;99.90;;;;;;4993181;28;20033;-71
2023/12/13 00:59:46;;;;;;;38.60;16.05;;;6.90;99.90;;;;;;4994757;28;20041;-71
2023/12/13 01:02:12;;;;;;;31.92;14.80;;;6.90;99.90;;;;;;4994093;28;20026;-72
2023/12/13 01:04:38;;;;;;;35.88;15.38;;;6.90;99.90;;;;;;4994793;28;20502;-71
2023/12/13 01:07:03;;;;;;;34.30;14.57;;;6.90;99.90;;;;;;4994822;28;20057;-71
2023/12/13 01:09:29;;;;;;;33.47;15.75;;;6.90;99.90;;;;;;4992965;28;20561;-72
2023/12/13 01:11:55;;;;;;;35.22;14.98;;;6.90;99.90;;;;;;4992984;28;20076;-71
2023/12/13 01:14:20;;;;;;;36.10;15.07;;;6.90;99.90;;;;;;4994260;28;20186;-70
2023/12/13 01:16:46;;;;;;;38.90;15.40;;;6.90;99.90;;;;;;4993448;28;20089;-73
2023/12/13 01:19:11;;;;;;;36.75;15.63;;;6.90;99.90;;;;;;4994064;28;20026;-71
2023/12/13 01:21:37;;;;;;;37.20;15.18;;;6.90;99.90;;;;;;4994056;28;20026;-72
2023/12/13 01:24:03;;;;;;;35.50;15.25;;;6.90;99.90;;;;;;4993387;28;20026;-70
2023/12/13 01:26:28;;;;;;;32.60;15.18;;;6.90;99.90;;;;;;4994366;28;20747;-70
2023/12/13 01:28:54;;;;;;;36.42;16.00;;;6.90;99.90;;;;;;5008948;28;20169;-70
2023/12/13 01:31:20;;;;;;;45.22;16.27;;;7.00;99.90;;;;;;4994271;28;20098;-71
2023/12/13 01:33:45;;;;;;;38.47;16.35;;;7.00;99.90;;;;;;4994097;28;20102;-71
2023/12/13 01:36:11;;;;;;;36.30;15.70;;;7.00;99.90;;;;;;4994319;28;20053;-71
2023/12/13 01:38:37;;;;;;;35.10;15.00;;;7.00;99.90;;;;;;4993423;28;20038;-69
2023/12/13 01:41:03;;;;;;;36.90;15.75;;;7.00;99.90;;;;;;4993384;28;20023;-70
2023/12/13 01:43:29;;;;;;;41.85;16.13;;;7.00;99.90;;;;;;4993563;28;20111;-70
2023/12/13 01:45:56;;;;;;;38.95;16.80;;;7.10;99.90;;;;;;4994082;28;20034;-71
2023/12/13 01:48:25;;;;;;;34.28;16.73;;;7.00;99.90;;;;;;4993447;28;20014;-71
2023/12/13 01:50:52;;;;;;;32.30;15.70;;;7.10;99.90;;;;;;4993692;28;20030;-71
2023/12/13 01:53:18;;;;;;;35.47;15.52;;;7.10;99.90;;;;;;4993683;28;20030;-70
2023/12/13 01:55:45;;;;;;;35.28;15.93;;;7.10;99.90;;;;;;4994040;28;20015;-71
2023/12/13 01:58:12;;;;;;;36.03;16.13;;;7.10;99.90;;;;;;4992068;28;20034;-71
2023/12/13 02:00:41;;;;;;;38.60;15.95;;;7.10;99.90;;;;;;4991703;28;20033;-70
2023/12/13 02:03:09;;;;;;;33.40;16.23;;;7.10;99.90;;;;;;4993466;28;20047;-72
2023/12/13 02:05:35;;;;;;;37.15;15.93;;;7.10;99.90;;;;;;4992009;28;20014;-71
2023/12/13 02:08:02;;;;;;;38.05;15.63;;;7.20;99.90;;;;;;4993174;28;20039;-71
2023/12/13 02:10:27;;;;;;;44.75;16.90;;;7.20;99.90;;;;;;4992501;28;20046;-71
2023/12/13 02:12:53;;;;;;;42.22;16.42;;;7.10;99.90;;;;;;4992264;28;20031;-72
2023/12/13 02:15:20;;;;;;;39.92;16.65;;;7.10;99.90;;;;;;4991799;28;20035;-72
2023/12/13 02:17:52;;;;;;;46.97;17.17;;;7.10;99.90;;;;;;4993176;28;20031;-72
2023/12/13 02:20:18;;;;;;;49.88;16.77;;;7.10;99.90;;;;;;4992453;28;20031;-72
2023/12/13 02:22:44;;;;;;;42.65;17.10;;;7.10;99.90;;;;;;4991852;28;20417;-72
2023/12/13 02:25:22;;;;;;;41.03;16.48;;;7.10;99.90;;;;;;4991364;28;20027;-71
2023/12/13 02:27:48;;;;;;;37.70;17.00;;;7.10;99.90;;;;;;4992918;28;20026;-71
2023/12/13 02:30:14;;;;;;;39.67;17.10;;;7.10;99.90;;;;;;4990964;28;20057;-72
2023/12/13 02:32:39;;;;;;;45.75;16.52;;;7.10;99.90;;;;;;4992214;28;20031;-72
2023/12/13 02:35:06;;;;;;;39.90;16.35;;;7.00;99.90;;;;;;4993227;28;20031;-71
2023/12/13 02:37:31;;;;;;;40.53;16.85;;;6.90;99.90;;;;;;4991525;28;20034;-72
2023/12/13 02:39:58;;;;;;;38.78;16.15;;;7.00;99.90;;;;;;4992252;28;20435;-72
2023/12/13 02:42:25;;;;;;;40.45;16.67;;;7.00;99.90;;;;;;4990092;28;20118;-73
2023/12/13 02:44:51;;;;;;;46.97;16.88;;;7.00;99.90;;;;;;4990744;28;20023;-71
2023/12/13 02:47:16;;;;;;;43.13;17.30;;;7.00;99.90;;;;;;4992181;28;20501;-72
2023/12/13 02:49:42;;;;;;;33.58;16.83;;;7.00;99.90;;;;;;4991602;28;20018;-71
2023/12/13 02:52:08;;;;;;;50.55;18.20;;;7.00;99.90;;;;;;4991156;28;20037;-71
2023/12/13 02:54:34;;;;;;;54.17;17.75;;;7.00;99.90;;;;;;4991743;28;20061;-71
2023/12/13 02:56:59;;;;;;;49.47;19.20;;;7.00;99.90;;;;;;4992314;28;20023;-71
2023/12/13 02:59:25;;;;;;;49.40;18.50;;;7.00;99.90;;;;;;5005228;28;20027;-70
2023/12/13 03:01:50;;;;;;;38.63;17.50;;;7.00;99.90;;;;;;4991497;28;20029;-71
2023/12/13 03:04:16;;;;;;;44.65;17.95;;;7.00;99.90;;;;;;4991650;28;20117;-72
2023/12/13 03:06:41;;;;;;;43.17;17.67;;;7.00;99.90;;;;;;4991344;28;20052;-72
2023/12/13 03:09:07;;;;;;;48.78;17.80;;;7.00;99.90;;;;;;4991217;28;20019;-71
2023/12/13 03:11:32;;;;;;;43.13;17.17;;;7.00;99.90;;;;;;4992471;28;20034;-70
2023/12/13 03:13:58;;;;;;;39.13;17.52;;;7.00;99.90;;;;;;4989880;28;20107;-71
2023/12/13 03:16:24;;;;;;;46.53;17.13;;;6.90;99.90;;;;;;4990724;28;20027;-71
2023/12/13 03:18:50;;;;;;;46.40;17.35;;;6.90;99.90;;;;;;4990664;28;20027;-70
2023/12/13 03:21:15;;;;;;;51.75;17.67;;;6.90;99.90;;;;;;4991139;28;20034;-71
2023/12/13 03:23:41;;;;;;;38.33;16.33;;;6.90;99.90;;;;;;4991850;28;20049;-70
2023/12/13 03:26:06;;;;;;;37.92;17.15;;;6.90;99.90;;;;;;4991872;28;20039;-71
2023/12/13 03:28:32;;;;;;;44.90;17.58;;;6.90;99.90;;;;;;4991623;28;20053;-71
2023/12/13 03:30:58;;;;;;;48.47;17.20;;;6.90;99.90;;;;;;4990959;28;20042;-72
2023/12/13 03:33:23;;;;;;;56.92;18.48;;;6.90;99.90;;;;;;4992277;28;20026;-71
2023/12/13 03:35:49;;;;;;;41.28;16.95;;;6.90;99.90;;;;;;4991525;28;20030;-73
2023/12/13 03:38:14;;;;;;;42.38;15.70;;;6.90;99.90;;;;;;4988852;28;20039;-72
2023/12/13 03:40:40;;;;;;;44.50;16.40;;;7.00;99.90;;;;;;4990822;28;20030;-73
2023/12/13 03:43:06;;;;;;;40.45;17.13;;;7.00;99.90;;;;;;4991123;28;20018;-71
2023/12/13 03:45:31;;;;;;;46.10;17.00;;;7.00;99.90;;;;;;4991405;28;20038;-72
2023/12/13 03:47:57;;;;;;;42.80;17.70;;;7.00;99.90;;;;;;4991443;28;20034;-70
2023/12/13 03:50:23;;;;;;;37.10;16.25;;;6.90;99.90;;;;;;4989776;28;20105;-71
2023/12/13 03:52:48;;;;;;;47.40;17.48;;;7.00;99.90;;;;;;4991818;28;20018;-70
2023/12/13 03:55:14;;;;;;;40.90;16.83;;;7.00;99.90;;;;;;4990919;28;20039;-72
2023/12/13 03:57:39;;;;;;;46.67;16.92;;;7.00;99.90;;;;;;4990697;28;20027;-72
2023/12/13 04:00:06;;;;;;;41.95;17.33;;;7.00;99.90;;;;;;4989325;28;20049;-71
2023/12/13 04:02:32;;;;;;;38.83;16.70;;;7.00;99.90;;;;;;4991292;28;20034;-72
2023/12/13 04:04:57;;;;;;;42.22;17.40;;;7.00;99.90;;;;;;4989277;28;20050;-71
2023/12/13 04:07:23;;;;;;;49.47;18.50;;;7.10;99.90;;;;;;4990774;28;20034;-72
2023/12/13 04:09:49;;;;;;;43.42;17.55;;;7.10;99.90;;;;;;4990736;28;20041;-72
2023/12/13 04:12:15;;;;;;;46.75;19.63;;;7.10;99.90;;;;;;4991225;28;20026;-72
2023/12/13 04:14:41;;;;;;;47.95;17.52;;;7.10;99.90;;;;;;4991095;28;20403;-72
2023/12/13 04:17:07;;;;;;;49.53;18.77;;;7.10;99.90;;;;;;4989859;28;20030;-72
2023/12/13 04:19:33;;;;;;;47.28;18.00;;;7.10;99.90;;;;;;4990310;28;20038;-71
2023/12/13 04:21:58;;;;;;;49.50;18.58;;;7.10;99.90;;;;;;4990454;28;20014;-72
2023/12/13 04:24:24;;;;;;;49.92;19.00;;;7.10;99.90;;;;;;5006146;28;20054;-72
2023/12/13 04:26:50;;;;;;;55.45;19.27;;;7.10;99.90;;;;;;4990116;28;20054;-71
2023/12/13 04:29:15;;;;;;;57.30;19.73;;;7.10;99.90;;;;;;4991098;28;20135;-72
2023/12/13 04:31:42;;;;;;;42.05;17.45;;;7.00;99.90;;;;;;4989765;28;20042;-73
2023/12/13 04:34:08;;;;;;;64.40;19.60;;;7.00;99.90;;;;;;4991421;28;20030;-72
2023/12/13 04:36:33;;;;;;;57.55;19.27;;;7.00;99.90;;;;;;4989514;28;20038;-71
2023/12/13 04:38:59;;;;;;;46.70;18.30;;;7.00;99.90;;;;;;4990305;28;20089;-71
2023/12/13 04:41:25;;;;;;;65.07;19.63;;;7.00;99.90;;;;;;4991276;28;20031;-72
2023/12/13 04:43:50;;;;;;;48.47;18.17;;;7.00;99.90;;;;;;4991147;28;20022;-71
2023/12/13 04:46:16;;;;;;;62.85;19.77;;;7.00;99.90;;;;;;4992690;28;20395;-72
2023/12/13 04:48:42;;;;;;;53.10;19.63;;;7.00;99.90;;;;;;5008387;28;20472;-72
2023/12/13 04:51:07;;;;;;;45.53;19.38;;;7.10;99.90;;;;;;4994663;28;20408;-71
2023/12/13 04:53:33;;;;;;;60.60;20.40;;;7.10;99.90;;;;;;5007778;28;20027;-71
2023/12/13 04:55:58;;;;;;;50.30;20.20;;;7.10;99.90;;;;;;4994619;28;20058;-72
2023/12/13 04:58:24;;;;;;;48.60;19.15;;;7.10;99.90;;;;;;4994652;28;20026;-71
2023/12/13 05:00:49;;;;;;;43.03;18.35;;;7.10;99.90;;;;;;4994305;28;20027;-71
2023/12/13 05:03:15;;;;;;;40.90;17.50;;;7.10;99.90;;;;;;4993453;28;20023;-72
2023/12/13 05:05:41;;;;;;;70.88;20.25;;;7.10;99.90;;;;;;4994995;28;20154;-71
2023/12/13 05:08:12;;;;;;;45.35;19.13;;;7.10;99.90;;;;;;4989612;28;20033;-71
2023/12/13 05:10:40;;;;;;;41.00;18.30;;;7.10;99.90;;;;;;4994613;28;20035;-71
2023/12/13 05:13:07;;;;;;;40.47;17.98;;;7.10;99.90;;;;;;4993996;28;20046;-72
2023/12/13 05:15:33;;;;;;;41.85;17.65;;;7.10;99.90;;;;;;4992788;28;20718;-71
2023/12/13 05:17:58;;;;;;;45.65;17.77;;;7.10;99.90;;;;;;4992001;28;20030;-71
2023/12/13 05:20:24;;;;;;;44.40;17.25;;;7.10;99.90;;;;;;4994195;28;20018;-71
2023/12/13 05:22:49;;;;;;;48.35;19.23;;;7.10;99.90;;;;;;4993949;28;20351;-70
2023/12/13 05:25:15;;;;;;;45.17;17.25;;;7.10;99.90;;;;;;4993880;28;20041;-72
2023/12/13 05:27:42;;;;;;;51.05;18.30;;;7.10;99.90;;;;;;4994262;28;20023;-72
2023/12/13 05:30:08;;;;;;;54.40;18.95;;;7.10;99.90;;;;;;4994204;28;20026;-71
2023/12/13 05:32:34;;;;;;;42.17;17.58;;;7.10;99.90;;;;;;4992213;28;20097;-70
2023/12/13 05:35:00;;;;;;;58.45;19.10;;;7.10;99.90;;;;;;4993757;28;20014;-71
2023/12/13 05:37:25;;;;;;;57.75;18.80;;;7.10;99.90;;;;;;4993984;28;20032;-71
2023/12/13 05:39:51;;;;;;;51.50;17.77;;;7.10;99.90;;;;;;4993922;28;20034;-69
2023/12/13 05:42:17;;;;;;;39.40;17.58;;;7.10;99.90;;;;;;4993025;28;20054;-70
2023/12/13 05:44:42;;;;;;;70.50;18.98;;;7.00;99.90;;;;;;4992728;28;20037;-69
2023/12/13 05:47:08;;;;;;;49.08;19.40;;;7.00;99.90;;;;;;4992244;28;20030;-69
2023/12/13 05:49:33;;;;;;;41.85;17.45;;;7.10;99.90;;;;;;4993028;28;20031;-69
2023/12/13 05:51:59;;;;;;;39.75;17.10;;;7.10;99.90;;;;;;5008017;28;20562;-71
2023/12/13 05:54:24;;;;;;;44.95;18.00;;;7.10;99.90;;;;;;4992298;28;20031;-69
2023/12/13 05:56:50;;;;;;;46.90;17.25;;;7.00;99.90;;;;;;4993021;28;20498;-70
2023/12/13 05:59:15;;;;;;;43.78;17.80;;;7.10;99.90;;;;;;4992968;28;20022;-69
2023/12/13 06:01:41;;;;;;;47.30;16.88;;;7.10;99.90;;;;;;4991876;28;20050;-70
2023/12/13 06:04:06;;;;;;;39.60;17.25;;;7.10;99.90;;;;;;4993742;28;20098;-69
2023/12/13 06:06:32;;;;;;;44.65;16.95;;;7.10;99.90;;;;;;4993924;28;20026;-69
2023/12/13 06:08:58;;;;;;;63.33;18.83;;;7.10;99.90;;;;;;4990032;28;20624;-70
2023/12/13 06:11:24;;;;;;;40.45;15.95;;;7.10;99.90;;;;;;4991082;28;20042;-72
2023/12/13 06:13:49;;;;;;;53.97;17.92;;;7.00;99.90;;;;;;4991844;28;20088;-70
2023/12/13 06:16:15;;;;;;;59.15;18.58;;;7.00;99.90;;;;;;4993077;28;20089;-70
2023/12/13 06:18:40;;;;;;;51.20;17.27;;;7.00;99.90;;;;;;4993258;28;20034;-70
2023/12/13 06:21:07;;;;;;;42.15;16.50;;;7.00;99.90;;;;;;4992053;28;20030;-71
2023/12/13 06:23:33;;;;;;;42.22;17.25;;;7.00;99.90;;;;;;4992623;28;20019;-70
2023/12/13 06:25:58;;;;;;;59.42;17.63;;;7.00;99.90;;;;;;4990902;28;20065;-70
2023/12/13 06:28:24;;;;;;;45.30;17.50;;;7.00;99.90;;;;;;4988918;28;20117;-70
2023/12/13 06:30:49;;;;;;;50.72;18.05;;;7.00;99.90;;;;;;4991572;28;20042;-70
2023/12/13 06:33:18;;;;;;;45.40;16.60;;;7.00;99.90;;;;;;4992357;28;20062;-70
2023/12/13 06:35:44;;;;;;;44.78;16.30;;;7.00;99.90;;;;;;4992962;28;20099;-72
2023/12/13 06:38:10;;;;;;;53.67;17.98;;;7.00;99.90;;;;;;4993048;28;20093;-71
2023/12/13 06:40:35;;;;;;;38.20;16.17;;;7.00;99.90;;;;;;4989174;28;20034;-71
2023/12/13 06:43:01;;;;;;;48.85;17.35;;;6.90;99.90;;;;;;4991527;28;20046;-70
2023/12/13 06:45:26;;;;;;;52.30;16.48;;;7.00;99.90;;;;;;4991320;28;20046;-70
2023/12/13 06:47:52;;;;;;;52.17;17.27;;;6.90;99.90;;;;;;4990675;28;20049;-70
2023/12/13 06:50:19;;;;;;;44.08;15.73;;;6.90;99.90;;;;;;4991054;28;20031;-70
2023/12/13 06:52:47;;;;;;;48.13;16.92;;;6.90;99.90;;;;;;4992306;28;20026;-71
2023/12/13 06:55:13;;;;;;;44.72;15.40;;;6.90;99.90;;;;;;5006719;28;20027;-70
2023/12/13 06:57:39;;;;;;;41.05;15.27;;;6.90;99.90;;;;;;4990471;28;21032;-71
2023/12/13 07:00:05;;;;;;;37.22;14.38;;;6.90;99.90;;;;;;4992509;28;20052;-70
2023/12/13 07:02:31;;;;;;;44.20;15.27;;;6.90;99.90;;;;;;4988384;28;20034;-70
2023/12/13 07:04:57;;;;;;;49.05;15.32;;;6.90;99.90;;;;;;4991669;28;20034;-70
2023/12/13 07:07:22;;;;;;;50.50;14.85;;;6.90;99.90;;;;;;4990394;28;20033;-70
2023/12/13 07:09:48;;;;;;;41.53;14.25;;;6.90;99.90;;;;;;4989436;28;20019;-70
2023/12/13 07:12:13;;;;;;;37.88;14.23;;;6.90;99.90;;;;;;4989690;28;20098;-70
2023/12/13 07:14:39;;;;;;;36.45;13.35;;;6.90;99.90;;;;;;4990360;28;20029;-69
2023/12/13 07:17:04;;;;;;;29.17;13.00;;;6.90;99.90;;;;;;4988460;28;20054;-70
2023/12/13 07:19:30;;;;;;;31.67;12.27;;;6.90;99.90;;;;;;4988962;28;20067;-69
2023/12/13 07:21:55;;;;;;;30.52;12.70;;;6.90;99.90;;;;;;4991047;28;20435;-70
2023/12/13 07:24:21;;;;;;;30.27;13.50;;;6.90;99.90;;;;;;4990424;28;20038;-70
2023/12/13 07:26:46;;;;;;;32.50;12.88;;;6.90;99.90;;;;;;4990951;28;20058;-71
2023/12/13 07:29:12;;;;;;;27.48;11.90;;;6.90;99.90;;;;;;4990708;28;20037;-70
2023/12/13 07:31:41;;;;;;;30.70;13.15;;;6.90;99.90;;;;;;4990684;28;20042;-70
2023/12/13 07:34:09;;;;;;;39.90;13.55;;;6.90;99.90;;;;;;4990806;28;20035;-68
2023/12/13 07:36:36;;;;;;;26.13;11.82;;;6.90;99.90;;;;;;4992008;28;20049;-71
2023/12/13 07:39:03;;;;;;;28.77;12.88;;;6.90;99.90;;;;;;4989830;28;20042;-70
2023/12/13 07:41:29;;;;;;;29.45;12.00;;;6.90;99.90;;;;;;4991538;28;20027;-70
2023/12/13 07:43:55;;;;;;;24.75;11.20;;;6.90;99.90;;;;;;4989349;28;20077;-69
2023/12/13 07:46:20;;;;;;;29.23;11.63;;;6.90;99.90;;;;;;4987446;28;20035;-70
2023/12/13 07:48:47;;;;;;;22.55;11.02;;;6.80;99.90;;;;;;4990712;28;20106;-70
2023/12/13 07:51:13;;;;;;;26.65;12.23;;;6.90;99.90;;;;;;4990825;28;20182;-70
2023/12/13 07:53:39;;;;;;;30.52;12.55;;;6.90;99.90;;;;;;4992044;28;20023;-70
2023/12/13 07:56:06;;;;;;;26.20;10.80;;;6.90;99.90;;;;;;4990852;28;20023;-70
2023/12/13 07:58:31;;;;;;;27.48;11.00;;;6.90;99.90;;;;;;4989095;28;20026;-70
2023/12/13 08:00:57;;;;;;;31.27;11.90;;;6.80;99.90;;;;;;4989098;28;20105;-69
2023/12/13 08:03:23;;;;;;;31.42;11.75;;;6.90;99.90;;;;;;4999244;28;20129;-69
2023/12/13 08:05:49;;;;;;;31.38;11.18;;;6.90;99.90;;;;;;4988212;28;20034;-70
2023/12/13 08:08:29;;;;;;;27.75;10.73;;;6.90;99.90;;;;;;4988396;28;20042;-70
2023/12/13 08:10:54;;;;;;;24.50;10.95;;;6.90;99.90;;;;;;4985424;28;20046;-71
2023/12/13 08:13:20;;;;;;;28.02;11.40;;;6.80;99.90;;;;;;4985127;28;20069;-70
2023/12/13 08:15:48;;;;;;;20.88;10.25;;;6.90;99.90;;;;;;4986365;28;20031;-70
2023/12/13 08:18:13;;;;;;;25.13;11.00;;;6.90;99.90;;;;;;4986578;28;20027;-69
2023/12/13 08:20:39;;;;;;;25.45;10.73;;;6.90;99.90;;;;;;4987748;28;20030;-71
2023/12/13 08:23:04;;;;;;;23.52;10.20;;;6.90;99.90;;;;;;4993235;28;20086;-70
2023/12/13 08:25:30;;;;;;;23.27;10.65;;;6.90;99.90;;;;;;4994208;28;20088;-69
2023/12/13 08:27:55;;;;;;;22.45;10.52;;;6.80;99.90;;;;;;4992200;28;20470;-70
2023/12/13 08:30:21;;;;;;;24.27;10.32;;;6.90;99.90;;;;;;4992928;28;20023;-70
2023/12/13 08:32:47;;;;;;;20.83;9.60;;;6.90;99.90;;;;;;4994408;28;20035;-70
2023/12/13 08:35:12;;;;;;;24.40;9.98;;;6.90;99.90;;;;;;4994458;28;20054;-69
2023/12/13 08:37:38;;;;;;;25.83;9.05;;;6.80;99.90;;;;;;4994891;28;20026;-69
2023/12/13 08:40:04;;;;;;;24.25;9.27;;;6.80;99.90;;;;;;4994816;28;20033;-70
2023/12/13 08:42:30;;;;;;;17.92;8.50;;;6.80;99.90;;;;;;4994122;28;20161;-69
2023/12/13 08:44:55;;;;;;;18.88;8.27;;;6.80;99.90;;;;;;4990458;28;20030;-70
2023/12/13 08:47:21;;;;;;;16.00;8.30;;;6.80;99.90;;;;;;4991913;28;20107;-69
2023/12/13 08:49:47;;;;;;;26.40;9.55;;;6.80;99.90;;;;;;4993803;28;20049;-70
2023/12/13 08:52:15;;;;;;;21.25;9.80;;;6.80;99.90;;;;;;4988938;28;20034;-69
2023/12/13 08:54:40;;;;;;;18.88;8.65;;;6.80;99.90;;;;;;4990336;28;20632;-70
2023/12/13 08:57:06;;;;;;;18.85;8.88;;;6.80;99.90;;;;;;4990536;28;20094;-70
2023/12/13 08:59:31;;;;;;;19.45;8.63;;;6.80;99.90;;;;;;4992492;28;20046;-71
2023/12/13 09:01:57;;;;;;;21.10;9.10;;;6.80;99.90;;;;;;4986963;28;20030;-71
2023/12/13 09:04:22;;;;;;;21.73;8.50;;;6.80;99.90;;;;;;4991515;28;20022;-70
2023/12/13 09:06:48;;;;;;;24.48;10.18;;;6.80;99.90;;;;;;4990696;28;20073;-71
2023/12/13 09:09:14;;;;;;;21.42;9.13;;;6.80;99.90;;;;;;4991799;28;20022;-69
2023/12/13 09:11:39;;;;;;;19.50;7.88;;;6.80;99.90;;;;;;4990348;28;20089;-72
2023/12/13 09:14:05;;;;;;;20.70;8.60;;;6.80;99.90;;;;;;4993967;28;20037;-70
2023/12/13 09:16:31;;;;;;;16.55;8.38;;;6.80;99.90;;;;;;4989383;28;20807;-70
2023/12/13 09:18:56;;;;;;;16.85;8.95;;;6.80;99.90;;;;;;4991482;28;20042;-69
2023/12/13 09:21:23;;;;;;;21.23;8.95;;;6.80;99.90;;;;;;4983791;28;20045;-70
2023/12/13 09:23:48;;;;;;;20.65;8.45;;;6.80;99.90;;;;;;4986576;28;20019;-70
2023/12/13 09:26:14;;;;;;;17.95;8.32;;;6.80;99.90;;;;;;4991935;28;20115;-70
2023/12/13 09:28:40;;;;;;;18.38;7.82;;;6.80;99.90;;;;;;4990470;28;20065;-72
2023/12/13 09:31:07;;;;;;;14.93;8.05;;;6.80;99.90;;;;;;4992216;28;20046;-71
2023/12/13 09:33:33;;;;;;;15.00;7.70;;;6.80;99.90;;;;;;4979269;28;20388;-70
2023/12/13 09:35:59;;;;;;;15.52;7.07;;;6.80;99.90;;;;;;4993060;28;20082;-70
2023/12/13 09:38:24;;;;;;;14.55;6.90;;;6.80;99.90;;;;;;4992104;28;20035;-71
2023/12/13 09:40:51;;;;;;;12.32;6.28;;;6.80;99.90;;;;;;4989742;28;20073;-69
2023/12/13 09:43:17;;;;;;;11.57;6.03;;;6.80;99.90;;;;;;4993048;28;20041;-70
2023/12/13 09:45:45;;;;;;;13.27;6.18;;;6.80;99.90;;;;;;4993997;28;20023;-71
2023/12/13 09:48:13;;;;;;;12.68;6.65;;;6.80;99.90;;;;;;4990222;28;20054;-71
2023/12/13 09:50:40;;;;;;;12.77;5.97;;;6.80;99.90;;;;;;4988517;28;20095;-70
2023/12/13 09:53:06;;;;;;;10.85;5.95;;;6.80;99.90;;;;;;4991534;28;20027;-70
2023/12/13 09:55:32;;;;;;;11.48;6.28;;;6.80;99.90;;;;;;4986840;28;20034;-71
2023/12/13 09:57:58;;;;;;;11.32;6.30;;;6.80;99.90;;;;;;5004477;28;20085;-70
2023/12/13 10:00:23;;;;;;;13.75;6.45;;;6.80;99.90;;;;;;4989947;28;20029;-69
2023/12/13 10:02:49;;;;;;;14.20;6.55;;;6.80;99.90;;;;;;4982970;28;20030;-71
2023/12/13 10:05:17;;;;;;;11.68;6.28;;;6.80;99.90;;;;;;4992979;28;20022;-71
2023/12/13 10:07:42;;;;;;;11.13;6.07;;;6.90;99.90;;;;;;4991868;28;20035;-73
2023/12/13 10:10:09;;;;;;;13.80;6.20;;;6.80;99.90;;;;;;5008286;28;20041;-71
2023/12/13 10:12:40;;;;;;;11.63;6.00;;;6.80;99.90;;;;;;4991159;28;20094;-70
2023/12/13 10:15:12;;;;;;;11.70;6.68;;;6.80;99.90;;;;;;4993913;28;20038;-71
2023/12/13 10:17:39;;;;;;;11.05;5.72;;;6.90;99.90;;;;;;4992285;28;20037;-71
2023/12/13 10:20:06;;;;;;;11.27;5.97;;;6.90;99.90;;;;;;4992835;28;20034;-71
2023/12/13 10:22:32;;;;;;;10.35;5.82;;;6.90;99.90;;;;;;4991895;28;20030;-71
2023/12/13 10:24:58;;;;;;;11.30;5.88;;;6.90;99.90;;;;;;4993237;28;20022;-71
2023/12/13 10:27:24;;;;;;;12.73;6.03;;;6.90;99.90;;;;;;4992289;28;20131;-70
2023/12/13 10:29:51;;;;;;;11.73;5.88;;;6.90;99.90;;;;;;4992286;28;20030;-70
2023/12/13 10:32:18;;;;;;;12.48;5.82;;;6.90;99.90;;;;;;4993273;28;20042;-70
2023/12/13 10:34:44;;;;;;;12.20;6.32;;;6.90;99.90;;;;;;4993173;28;20043;-72
2023/12/13 10:37:12;;;;;;;11.98;5.78;;;6.90;99.90;;;;;;4991865;28;20058;-70
2023/12/13 10:39:42;;;;;;;11.43;5.95;;;6.90;99.90;;;;;;4991089;28;20408;-71
2023/12/13 10:42:09;;;;;;;10.48;5.85;;;6.90;99.90;;;;;;5005053;28;20527;-70
2023/12/13 10:44:36;;;;;;;13.75;6.75;;;7.00;99.90;;;;;;4992307;28;20937;-68
2023/12/13 10:47:08;;;;;;;11.77;6.15;;;7.00;99.90;;;;;;4992099;28;20019;-69
2023/12/13 10:49:35;;;;;;;10.73;5.80;;;6.90;99.90;;;;;;4992880;28;20045;-71
2023/12/13 10:52:03;;;;;;;10.63;5.68;;;7.00;99.90;;;;;;4991802;28;20531;-69
2023/12/13 10:54:29;;;;;;;11.20;5.85;;;7.00;99.90;;;;;;4991074;28;20037;-69
2023/12/13 10:56:56;;;;;;;10.70;5.70;;;7.00;99.90;;;;;;4992766;28;20121;-70
2023/12/13 10:59:23;;;;;;;12.73;6.32;;;7.00;99.90;;;;;;4991118;28;20030;-70
2023/12/13 11:01:49;;;;;;;13.00;5.90;;;6.90;99.90;;;;;;4988372;28;20022;-70
2023/12/13 11:04:18;;;;;;;12.63;6.65;;;6.90;99.90;;;;;;4989573;28;20056;-70
2023/12/13 11:06:48;;;;;;;12.45;5.70;;;6.90;99.90;;;;;;4989242;28;20035;-71
2023/12/13 11:09:17;;;;;;;9.38;5.45;;;6.90;99.90;;;;;;4991655;28;20030;-71
2023/12/13 11:11:43;;;;;;;11.43;5.80;;;6.90;99.90;;;;;;4990700;28;20043;-69
2023/12/13 11:14:11;;;;;;;10.90;5.70;;;6.90;99.90;;;;;;4983828;28;20043;-70
2023/12/13 11:16:45;;;;;;;10.32;5.47;;;6.90;99.90;;;;;;4987565;28;20030;-69
2023/12/13 11:19:15;;;;;;;9.18;4.97;;;6.90;99.90;;;;;;5001792;28;20066;-70
2023/12/13 11:21:41;;;;;;;9.70;5.43;;;6.90;99.90;;;;;;4991333;28;20045;-69
2023/12/13 11:24:16;;;;;;;10.68;5.35;;;6.90;99.90;;;;;;4989416;28;20035;-71
2023/12/13 11:26:50;;;;;;;9.52;5.65;;;6.90;99.90;;;;;;4985897;28;20133;-70
2023/12/13 11:29:21;;;;;;;8.20;4.72;;;6.80;99.90;;;;;;4990512;28;20054;-70
2023/12/13 11:31:54;;;;;;;9.68;5.22;;;6.90;99.90;;;;;;4988973;28;20054;-70
2023/12/13 11:34:35;;;;;;;10.25;5.32;;;6.80;99.90;;;;;;4990463;28;20065;-70
2023/12/13 11:37:06;;;;;;;8.90;5.10;;;6.80;99.90;;;;;;4981337;28;20110;-70
2023/12/13 11:39:33;;;;;;;8.57;5.18;;;6.80;99.90;;;;;;4983438;28;20105;-71
2023/12/13 11:42:00;;;;;;;8.60;4.70;;;6.80;99.90;;;;;;4978108;28;20031;-70
2023/12/13 11:44:30;;;;;;;8.43;4.85;;;6.80;99.90;;;;;;4989310;28;20035;-69
2023/12/13 11:46:56;;;;;;;9.77;5.10;;;6.80;99.90;;;;;;4989306;28;20132;-70
2023/12/13 11:49:23;;;;;;;8.02;4.70;;;6.80;99.90;;;;;;4989575;28;20080;-71
2023/12/13 11:51:48;;;;;;;11.57;4.85;;;6.80;99.90;;;;;;4989474;28;20039;-70
2023/12/13 11:54:14;;;;;;;9.88;4.30;;;6.80;99.90;;;;;;4990366;28;20473;-71
2023/12/13 11:56:43;;;;;;;9.80;4.72;;;6.80;99.90;;;;;;4989856;28;20033;-70
2023/12/13 11:59:09;;;;;;;10.90;4.75;;;6.90;99.90;;;;;;4991418;28;20041;-69
2023/12/13 12:01:35;;;;;;;7.50;4.45;;;6.90;99.90;;;;;;4990288;28;20054;-70
2023/12/13 12:04:01;;;;;;;7.82;4.65;;;6.90;99.90;;;;;;4991787;28;20082;-71
2023/12/13 12:06:26;;;;;;;9.05;4.97;;;6.90;99.90;;;;;;4991603;28;20209;-71
2023/12/13 12:08:52;;;;;;;7.22;4.47;;;6.80;99.90;;;;;;4991761;28;20054;-70
2023/12/13 12:11:24;;;;;;;9.02;5.35;;;6.70;99.90;;;;;;4992395;28;20131;-70
2023/12/13 12:13:52;;;;;;;8.95;5.47;;;6.70;99.90;;;;;;4990321;28;20113;-71
2023/12/13 12:16:19;;;;;;;8.95;5.38;;;6.70;99.90;;;;;;4990028;28;20034;-70
2023/12/13 12:18:45;;;;;;;11.65;6.22;;;6.70;99.90;;;;;;4991272;28;20464;-71
2023/12/13 12:21:11;;;;;;;11.40;6.40;;;6.70;99.90;;;;;;4991736;28;20030;-71
2023/12/13 12:23:42;;;;;;;11.32;6.10;;;6.70;99.90;;;;;;4991088;28;20438;-69
2023/12/13 12:26:12;;;;;;;11.18;6.47;;;6.70;99.90;;;;;;4991691;28;20038;-70
2023/12/13 12:28:39;;;;;;;11.55;6.18;;;6.70;99.90;;;;;;4991391;28;20097;-70
2023/12/13 12:31:06;;;;;;;10.52;6.10;;;6.70;99.90;;;;;;4990828;28;20039;-70
2023/12/13 12:33:32;;;;;;;11.23;6.30;;;6.70;99.90;;;;;;4989950;28;20038;-70
2023/12/13 12:35:58;;;;;;;11.23;6.40;;;6.70;99.90;;;;;;4990294;28;20019;-71